createdAt,value
2017-02-23T00:01:00.326Z,995.448
2017-02-23T00:04:05.278Z,995.279
2017-02-23T00:07:11.125Z,995.274
2017-02-23T00:10:16.115Z,995.383
2017-02-23T00:13:20.578Z,995.247
2017-02-23T00:16:25.708Z,995.328
2017-02-23T00:19:25.636Z,995.311
2017-02-23T00:22:33.449Z,995.297
2017-02-23T00:25:42.220Z,995.326
2017-02-23T00:28:47.968Z,995.387
2017-02-23T00:31:53.284Z,995.346
2017-02-23T00:34:58.456Z,995.488
2017-02-23T00:38:04.050Z,995.354
2017-02-23T00:41:10.085Z,995.338
2017-02-23T00:44:13.341Z,995.277
2017-02-23T00:47:18.393Z,995.183
2017-02-23T00:50:23.697Z,995.324
2017-02-23T00:56:34.737Z,995.440
2017-02-23T00:59:34.960Z,995.472
2017-02-23T01:02:46.034Z,995.436
2017-02-23T01:05:57.163Z,995.513
2017-02-23T01:09:01.386Z,995.454
2017-02-23T01:12:04.739Z,995.550
2017-02-23T01:18:07.474Z,995.526
2017-02-23T01:21:17.583Z,995.537
2017-02-23T01:24:21.593Z,995.616
2017-02-23T01:27:26.886Z,995.539
2017-02-23T01:33:34.654Z,995.506
2017-02-23T01:36:39.158Z,995.460
2017-02-23T01:39:42.563Z,995.527
2017-02-23T01:42:46.657Z,995.442
2017-02-23T01:55:03.131Z,995.500
2017-02-23T01:58:06.536Z,995.554
2017-02-23T02:01:10.311Z,995.544
2017-02-23T02:07:17.562Z,995.574
2017-02-23T02:13:20.054Z,995.580
2017-02-23T02:16:25.510Z,995.560
2017-02-23T02:19:31.080Z,995.526
2017-02-23T02:22:34.672Z,995.566
2017-02-23T02:25:40.488Z,995.631
2017-02-23T02:28:45.557Z,995.668
2017-02-23T02:31:52.108Z,995.706
2017-02-23T02:34:58.051Z,995.705
2017-02-23T02:38:00.491Z,995.831
2017-02-23T02:41:05.955Z,995.847
2017-02-23T02:44:10.478Z,995.841
2017-02-23T02:47:10.719Z,995.973
2017-02-23T02:50:23.145Z,996.063
2017-02-23T02:53:25.398Z,995.876
2017-02-23T02:56:25.557Z,995.889
2017-02-23T02:59:31.412Z,995.875
2017-02-23T03:02:36.729Z,995.921
2017-02-23T03:05:40.755Z,995.994
2017-02-23T03:11:51.456Z,995.993
2017-02-23T03:14:51.305Z,995.941
2017-02-23T03:18:05.225Z,995.945
2017-02-23T03:21:06.040Z,995.975
2017-02-23T03:24:11.316Z,996.078
2017-02-23T03:27:16.553Z,996.046
2017-02-23T03:30:22.801Z,996.015
2017-02-23T03:36:29.193Z,996.089
2017-02-23T03:39:29.380Z,996.132
2017-02-23T03:42:40.544Z,996.182
2017-02-23T03:45:46.107Z,996.250
2017-02-23T03:48:51.939Z,996.261
2017-02-23T03:55:05.233Z,996.265
2017-02-23T03:58:11.775Z,996.303
2017-02-23T04:01:16.624Z,996.273
2017-02-23T04:07:24.019Z,996.324
2017-02-23T04:10:28.276Z,996.348
2017-02-23T04:13:31.783Z,996.372
2017-02-23T04:16:35.534Z,996.462
2017-02-23T04:19:39.463Z,996.347
2017-02-23T04:22:43.171Z,996.382
2017-02-23T04:28:52.408Z,996.397
2017-02-23T04:31:56.099Z,996.381
2017-02-23T04:35:00.860Z,996.421
2017-02-23T04:38:04.281Z,996.471
2017-02-23T04:41:04.601Z,996.584
2017-02-23T04:44:08.580Z,996.535
2017-02-23T04:47:13.914Z,996.475
2017-02-23T04:50:19.074Z,996.481
2017-02-23T04:53:24.299Z,996.469
2017-02-23T04:59:35.637Z,996.459
2017-02-23T05:02:40.805Z,996.508
2017-02-23T05:05:43.501Z,996.557
2017-02-23T05:08:48.918Z,996.581
2017-02-23T05:11:53.848Z,996.575
2017-02-23T05:18:05.649Z,996.580
2017-02-23T05:21:09.964Z,996.608
2017-02-23T05:24:15.284Z,996.675
2017-02-23T05:27:17.397Z,996.723
2017-02-23T05:30:26.185Z,996.660
2017-02-23T05:33:31.161Z,996.686
2017-02-23T05:36:36.707Z,996.676
2017-02-23T05:39:41.231Z,996.662
2017-02-23T05:42:46.358Z,996.718
2017-02-23T05:45:57.538Z,996.725
2017-02-23T05:48:54.371Z,996.729
2017-02-23T05:55:09.918Z,996.755
2017-02-23T05:58:14.093Z,996.782
2017-02-23T06:01:17.901Z,996.858
2017-02-23T06:04:21.881Z,996.918
2017-02-23T06:07:25.857Z,996.912
2017-02-23T06:16:37.735Z,996.920
2017-02-23T06:19:42.091Z,996.936
2017-02-23T06:22:46.201Z,996.970
2017-02-23T06:25:50.438Z,996.940
2017-02-23T06:28:54.846Z,996.965
2017-02-23T06:31:53.964Z,996.929
2017-02-23T06:35:05.250Z,996.800
2017-02-23T06:38:09.592Z,996.764
2017-02-23T06:41:13.689Z,996.868
2017-02-23T06:44:17.982Z,996.870
2017-02-23T06:50:25.729Z,996.856
2017-02-23T06:53:29.923Z,996.901
2017-02-23T06:59:39.348Z,996.822
2017-02-23T07:02:43.242Z,996.789
2017-02-23T07:17:58.615Z,996.731
2017-02-23T07:21:03.272Z,996.682
2017-02-23T07:36:27.075Z,996.716
2017-02-23T08:00:48.837Z,996.652
2017-02-23T08:03:53.276Z,996.673
2017-02-23T08:06:53.117Z,996.711
2017-02-23T08:10:04.026Z,996.750
2017-02-23T08:13:09.754Z,996.725
2017-02-23T08:22:28.669Z,996.551
2017-02-23T08:28:35.473Z,996.439
2017-02-23T08:40:50.918Z,996.414
2017-02-23T08:46:59.170Z,996.301
2017-02-23T08:59:14.459Z,996.227
2017-02-23T09:02:17.534Z,996.211
2017-02-23T09:11:28.712Z,996.151
2017-02-23T09:14:33.145Z,996.136
2017-02-23T09:39:03.773Z,995.739
2017-02-23T09:42:07.415Z,995.709
2017-02-23T09:45:10.797Z,995.740
2017-02-23T09:48:13.690Z,995.734
2017-02-23T09:51:16.586Z,995.629
2017-02-23T10:06:30.250Z,995.434
2017-02-23T10:15:47.351Z,995.301
2017-02-23T10:18:45.164Z,995.280
2017-02-23T10:21:50.377Z,995.234
2017-02-23T10:24:55.954Z,995.137
2017-02-23T10:28:01.229Z,995.137
2017-02-23T10:31:06.593Z,995.042
2017-02-23T10:34:11.283Z,994.987
2017-02-23T10:37:18.365Z,994.936
2017-02-23T10:43:26.824Z,994.885
2017-02-23T10:46:33.766Z,994.758
2017-02-23T10:49:38.491Z,994.722
2017-02-23T10:52:41.596Z,994.642
2017-02-23T10:58:57.689Z,994.545
2017-02-23T11:02:01.542Z,994.531
2017-02-23T11:05:06.071Z,994.529
2017-02-23T11:23:29.183Z,994.381
2017-02-23T11:44:55.454Z,994.060
2017-02-23T11:54:05.371Z,993.849
2017-02-23T12:06:20.630Z,993.610
2017-02-23T12:15:31.590Z,993.443
2017-02-23T12:30:53.693Z,993.154
2017-02-23T12:52:20.803Z,992.320
2017-02-23T12:55:19.007Z,992.316
2017-02-23T12:58:24.294Z,992.091
2017-02-23T13:01:29.603Z,991.964
2017-02-23T13:04:34.987Z,991.839
2017-02-23T13:07:40.163Z,991.726
2017-02-23T13:10:45.265Z,991.701
2017-02-23T13:13:50.561Z,991.580
2017-02-23T13:20:01.508Z,991.257
2017-02-23T13:23:06.870Z,991.097
2017-02-23T13:26:13.390Z,990.901
2017-02-23T13:29:12.977Z,990.694
2017-02-23T13:32:24.624Z,990.464
2017-02-23T13:35:29.387Z,990.325
2017-02-23T13:38:30.289Z,990.303
2017-02-23T13:41:35.636Z,990.102
2017-02-23T13:47:46.474Z,989.800
2017-02-23T13:50:51.180Z,989.676
2017-02-23T13:53:57.887Z,989.594
2017-02-23T13:57:02.953Z,989.466
2017-02-23T14:00:03.960Z,989.360
2017-02-23T14:03:09.194Z,989.228
2017-02-23T14:15:32.213Z,988.834
2017-02-23T14:24:44.765Z,988.540
2017-02-23T14:27:49.418Z,988.432
2017-02-23T14:30:52.972Z,988.165
2017-02-23T14:33:56.827Z,988.285
2017-02-23T14:37:01.301Z,988.207
2017-02-23T14:40:05.684Z,988.029
2017-02-23T14:43:10.175Z,987.871
2017-02-23T14:49:20.063Z,987.794
2017-02-23T14:52:24.091Z,987.544
2017-02-23T14:55:29.569Z,987.392
2017-02-23T14:58:33.592Z,987.241
2017-02-23T15:01:38.835Z,987.099
2017-02-23T15:04:42.869Z,986.968
2017-02-23T15:07:47.325Z,986.818
2017-02-23T15:10:51.647Z,986.772
2017-02-23T15:13:56.160Z,986.834
2017-02-23T15:17:00.660Z,986.637
2017-02-23T15:20:05.181Z,986.509
2017-02-23T15:23:09.753Z,986.454
2017-02-23T15:26:14.590Z,986.381
2017-02-23T15:29:18.880Z,986.281
2017-02-23T15:32:23.440Z,986.202
2017-02-23T15:35:27.449Z,986.058
2017-02-23T15:38:31.666Z,985.872
2017-02-23T15:41:37.121Z,985.831
2017-02-23T15:44:42.302Z,985.775
2017-02-23T15:53:55.480Z,985.598
2017-02-23T16:00:02.831Z,985.461
2017-02-23T16:03:01.933Z,985.384
2017-02-23T16:06:07.196Z,985.321
2017-02-23T16:09:12.070Z,985.212
2017-02-23T16:12:17.464Z,985.073
2017-02-23T16:15:19.107Z,984.883
2017-02-23T16:18:22.944Z,984.806
2017-02-23T16:21:33.913Z,984.694
2017-02-23T16:24:39.013Z,984.627
2017-02-23T16:27:44.462Z,984.511
2017-02-23T16:33:55.617Z,984.357
2017-02-23T16:37:01.017Z,984.256
2017-02-23T16:40:07.229Z,984.148
2017-02-23T16:43:10.432Z,984.083
2017-02-23T16:46:15.424Z,983.952
2017-02-23T16:49:20.737Z,983.838
2017-02-23T16:52:26.093Z,983.796
2017-02-23T16:58:38.420Z,983.551
2017-02-23T17:01:43.423Z,983.471
2017-02-23T17:04:47.280Z,983.470
2017-02-23T17:07:52.753Z,983.458
2017-02-23T17:10:58.245Z,983.480
2017-02-23T17:14:04.270Z,983.335
2017-02-23T17:17:08.222Z,983.446
2017-02-23T17:20:12.709Z,983.558
2017-02-23T17:23:18.018Z,983.379
2017-02-23T17:26:18.422Z,983.169
2017-02-23T17:29:26.087Z,983.354
2017-02-23T17:32:35.948Z,983.158
2017-02-23T17:38:44.013Z,983.269
2017-02-23T17:41:49.229Z,983.484
2017-02-23T17:44:54.581Z,983.433
2017-02-23T17:47:59.333Z,983.465
2017-02-23T17:51:04.598Z,983.421
2017-02-23T17:54:15.954Z,983.698
2017-02-23T17:57:14.961Z,983.606
2017-02-23T18:00:19.583Z,983.458
2017-02-23T18:18:48.227Z,982.975
2017-02-23T18:21:42.951Z,982.983
2017-02-23T18:27:59.285Z,982.902
2017-02-23T18:31:10.493Z,982.841
2017-02-23T18:34:14.927Z,982.887
2017-02-23T18:40:23.508Z,982.748
2017-02-23T18:43:21.551Z,982.822
2017-02-23T18:46:26.261Z,982.737
2017-02-23T18:49:37.086Z,982.763
2017-02-23T18:52:36.129Z,982.685
2017-02-23T18:55:41.481Z,982.764
2017-02-23T18:58:46.736Z,982.629
2017-02-23T19:01:52.092Z,982.557
2017-02-23T19:05:03.722Z,982.604
2017-02-23T19:08:01.780Z,982.572
2017-02-23T19:11:13.251Z,982.548
2017-02-23T19:14:13.282Z,982.504
2017-02-23T19:17:23.186Z,982.552
2017-02-23T19:20:21.138Z,982.511
2017-02-23T19:23:26.225Z,982.472
2017-02-23T19:26:30.962Z,982.476
2017-02-23T19:29:36.006Z,982.445
2017-02-23T19:32:41.167Z,982.400
2017-02-23T19:35:41.013Z,982.404
2017-02-23T19:38:51.784Z,982.440
2017-02-23T19:41:51.409Z,982.412
2017-02-23T19:45:08.403Z,982.380
2017-02-23T19:48:12.489Z,982.440
2017-02-23T19:51:15.803Z,982.390
2017-02-23T19:54:14.841Z,982.399
2017-02-23T19:57:23.855Z,982.394
2017-02-23T20:00:22.507Z,982.427
2017-02-23T20:03:27.072Z,982.402
2017-02-23T20:06:32.300Z,982.322
2017-02-23T20:09:37.318Z,982.288
2017-02-23T20:12:42.624Z,982.233
2017-02-23T20:15:47.652Z,982.215
2017-02-23T20:18:53.585Z,982.152
2017-02-23T20:21:57.967Z,982.084
2017-02-23T20:25:08.557Z,982.050
2017-02-23T20:28:13.745Z,982.016
2017-02-23T20:31:18.130Z,982.025
2017-02-23T20:37:25.492Z,981.916
2017-02-23T20:40:24.860Z,981.880
2017-02-23T20:43:29.651Z,981.856
2017-02-23T20:46:41.441Z,981.824
2017-02-23T20:49:40.725Z,981.872
2017-02-23T20:52:45.245Z,981.772
2017-02-23T20:55:50.232Z,981.739
2017-02-23T20:59:00.952Z,981.723
2017-02-23T21:02:04.985Z,981.691
2017-02-23T21:05:09.063Z,981.662
2017-02-23T21:08:07.429Z,981.692
2017-02-23T21:11:06.963Z,981.673
2017-02-23T21:14:17.738Z,981.685
2017-02-23T21:17:22.938Z,981.673
2017-02-23T21:20:22.939Z,981.692
2017-02-23T21:23:30.514Z,981.629
2017-02-23T21:29:43.952Z,981.497
2017-02-23T21:32:48.853Z,981.426
2017-02-23T21:35:51.430Z,981.427
2017-02-23T21:39:00.208Z,981.418
2017-02-23T21:42:00.967Z,981.422
2017-02-23T21:45:11.783Z,981.422
2017-02-23T21:48:17.000Z,981.429
2017-02-23T21:51:22.225Z,981.340
2017-02-23T21:54:27.274Z,981.290
2017-02-23T21:57:27.218Z,981.234
2017-02-23T22:00:38.044Z,981.168
2017-02-23T22:03:42.447Z,981.137
2017-02-23T22:06:47.637Z,981.122
2017-02-23T22:12:58.369Z,981.057
2017-02-23T22:16:04.433Z,981.044
2017-02-23T22:19:03.040Z,980.994
2017-02-23T22:22:13.440Z,980.980
2017-02-23T22:25:15.602Z,980.934
2017-02-23T22:31:30.082Z,981.000
2017-02-23T22:34:35.853Z,980.965
2017-02-23T22:37:38.005Z,980.991
2017-02-23T22:46:57.921Z,980.984
2017-02-23T22:53:08.593Z,980.926
2017-02-23T22:56:13.751Z,980.969
2017-02-23T22:59:18.851Z,980.928
2017-02-23T23:02:18.745Z,980.952
2017-02-23T23:05:35.631Z,980.980
2017-02-23T23:11:39.595Z,980.978
2017-02-23T23:14:44.787Z,981.010
2017-02-23T23:17:50.108Z,981.025
2017-02-23T23:21:01.369Z,981.139
2017-02-23T23:24:00.937Z,981.041
2017-02-23T23:27:04.116Z,981.165
2017-02-23T23:30:09.113Z,981.225
2017-02-23T23:33:14.254Z,981.302
2017-02-23T23:51:36.688Z,981.499
